Time;durP1;ratioP1;P1;durP2;ratioP2;P2;SDS_P1;SDS_P2;PMS_P1;PMS_P2;Temp;Humidity;BMP_temperature;BMP_pressure;BME280_temperature;BME280_humidity;BME280_pressure;Samples;Min_cycle;Max_cycle;Signal;HPM_P1;HPM_P2
2021/12/19 00:48:21;;;;;;;0.77;0.77;;;;;;;5.10;100.00;103749.59;6240751;22;20028;-82
2021/12/19 00:50:47;;;;;;;0.73;0.73;;;;;;;5.10;100.00;103744.34;6246683;23;20008;-81
2021/12/19 00:53:12;;;;;;;1.17;1.08;;;;;;;5.14;100.00;103741.81;6246119;23;20011;-81
2021/12/19 00:55:37;;;;;;;1.05;1.02;;;;;;;5.20;100.00;103738.47;6246730;23;20001;-81
2021/12/19 00:58:04;;;;;;;0.40;0.40;;;;;;;5.26;100.00;103742.16;6247104;23;20016;-81
2021/12/19 01:00:32;;;;;;;0.85;0.85;;;;;;;5.15;100.00;103730.44;6247618;23;20015;-81
2021/12/19 01:02:59;;;;;;;1.75;0.57;;;;;;;5.19;100.00;103731.38;6246421;23;20004;-81
2021/12/19 01:05:27;;;;;;;0.82;0.82;;;;;;;5.12;100.00;103730.34;6246362;23;20004;-82
2021/12/19 01:07:58;;;;;;;0.43;0.40;;;;;;;5.22;100.00;103740.28;6246688;23;20087;-82
2021/12/19 01:10:24;;;;;;;0.63;0.63;;;;;;;5.12;100.00;103735.59;6245795;23;20006;-81
2021/12/19 01:12:50;;;;;;;0.40;0.40;;;;;;;5.02;100.00;103727.44;6246217;23;20028;-81
2021/12/19 01:15:16;;;;;;;0.40;0.40;;;;;;;5.25;100.00;103727.16;6244850;23;20004;-82
2021/12/19 01:17:42;;;;;;;1.40;1.10;;;;;;;5.26;100.00;103731.59;6246279;23;19996;-82
2021/12/19 01:20:13;;;;;;;0.70;0.70;;;;;;;5.15;100.00;103727.81;6246509;23;20005;-81
2021/12/19 01:22:38;;;;;;;1.25;0.70;;;;;;;5.29;100.00;103722.88;6246019;23;20031;-83
2021/12/19 01:25:05;;;;;;;0.55;0.55;;;;;;;5.24;100.00;103725.41;6246214;23;20103;-83
2021/12/19 01:27:30;;;;;;;0.50;0.50;;;;;;;5.18;100.00;103721.72;6247985;23;20004;-83
2021/12/19 01:29:55;;;;;;;1.25;1.15;;;;;;;5.35;100.00;103729.19;6248355;23;20004;-81
2021/12/19 01:32:21;;;;;;;1.10;0.75;;;;;;;5.25;100.00;103729.81;6248211;23;20036;-81
2021/12/19 01:34:46;;;;;;;0.50;0.50;;;;;;;5.37;100.00;103727.50;6246565;23;20034;-80
2021/12/19 01:37:23;;;;;;;0.60;0.60;;;;;;;5.20;100.00;103723.53;6246752;23;20005;-83
2021/12/19 01:39:49;;;;;;;0.70;0.70;;;;;;;5.34;100.00;103726.53;6247232;23;20086;-81
2021/12/19 01:42:17;;;;;;;0.82;0.82;;;;;;;5.28;100.00;103727.25;6246702;23;20000;-81
2021/12/19 01:44:44;;;;;;;1.58;1.42;;;;;;;5.37;100.00;103726.59;6246528;23;20078;-81
2021/12/19 01:47:10;;;;;;;1.60;1.50;;;;;;;5.30;100.00;103724.66;6246371;23;20015;-81
2021/12/19 01:49:44;;;;;;;0.65;0.65;;;;;;;5.36;100.00;103719.53;6246952;23;20424;-81
2021/12/19 01:52:17;;;;;;;2.55;0.70;;;;;;;5.19;100.00;103716.47;6245903;23;20054;-81
2021/12/19 01:54:44;;;;;;;0.70;0.70;;;;;;;5.42;100.00;103712.66;6247362;23;20000;-81
2021/12/19 01:57:22;;;;;;;0.60;0.60;;;;;;;5.41;100.00;103712.63;6246967;23;20008;-80
2021/12/19 01:59:47;;;;;;;0.73;0.73;;;;;;;5.34;100.00;103716.84;6247653;23;19992;-81
2021/12/19 02:02:12;;;;;;;0.90;0.90;;;;;;;5.41;100.00;103724.06;6246842;23;20469;-81
2021/12/19 02:04:42;;;;;;;0.50;0.50;;;;;;;5.43;100.00;103719.72;6245602;23;20036;-81
2021/12/19 02:07:09;;;;;;;0.50;0.50;;;;;;;5.44;100.00;103728.50;6246609;23;20011;-81
2021/12/19 02:09:35;;;;;;;0.75;0.75;;;;;;;5.36;100.00;103725.69;6246610;23;20087;-81
2021/12/19 02:12:03;;;;;;;1.00;0.77;;;;;;;5.53;100.00;103724.34;6245470;23;20038;-81
2021/12/19 02:14:31;;;;;;;0.90;0.90;;;;;;;5.37;100.00;103724.84;6247062;23;20005;-81
2021/12/19 02:17:05;;;;;;;0.93;0.93;;;;;;;5.40;100.00;103721.41;6246605;23;20000;-81
2021/12/19 02:19:32;;;;;;;0.52;0.52;;;;;;;5.47;100.00;103718.94;6246174;23;20004;-81
2021/12/19 02:21:59;;;;;;;1.55;1.17;;;;;;;5.61;100.00;103727.19;6245916;23;20000;-81
2021/12/19 02:24:24;;;;;;;1.92;1.17;;;;;;;5.47;100.00;103713.66;6245899;23;20008;-81
2021/12/19 02:26:49;;;;;;;0.40;0.40;;;;;;;5.52;100.00;103716.41;6245930;23;20412;-81
2021/12/19 02:29:15;;;;;;;0.80;0.80;;;;;;;5.65;100.00;103703.56;6246309;23;20010;-81
2021/12/19 02:31:40;;;;;;;1.05;0.95;;;;;;;5.59;100.00;103707.78;6245976;23;20408;-81
2021/12/19 02:50:07;;;;;;;1.00;1.00;;;;;;;5.79;100.00;103699.50;6246009;23;20027;-80
2021/12/19 02:52:32;;;;;;;1.10;1.10;;;;;;;5.71;100.00;103695.78;6246206;23;20026;-80
2021/12/19 02:54:58;;;;;;;1.00;1.00;;;;;;;5.66;100.00;103689.50;6245925;23;20625;-81
2021/12/19 02:57:23;;;;;;;1.10;0.93;;;;;;;5.85;100.00;103682.94;6246324;23;20023;-81
2021/12/19 02:59:49;;;;;;;1.98;1.88;;;;;;;5.72;100.00;103683.50;6245529;23;20011;-80
2021/12/19 03:02:16;;;;;;;0.82;0.82;;;;;;;5.76;100.00;103677.44;6245189;23;20091;-80
2021/12/19 03:05:11;;;;;;;0.55;0.55;;;;;;;5.77;100.00;103677.47;6246525;23;20000;-81
2021/12/19 03:07:41;;;;;;;1.83;1.48;;;;;;;5.82;100.00;103669.69;6219374;23;20045;-81
2021/12/19 03:18:12;;;;;;;0.80;0.80;;;;;;;5.90;100.00;103649.63;6245812;23;20027;-82
2021/12/19 03:20:40;;;;;;;1.73;1.38;;;;;;;5.95;100.00;103650.63;6245634;23;20008;-81
2021/12/19 03:23:07;;;;;;;0.93;0.93;;;;;;;5.94;100.00;103646.22;6244809;23;20423;-83
2021/12/19 03:25:33;;;;;;;0.65;0.65;;;;;;;5.92;100.00;103640.91;6245598;23;20004;-81
2021/12/19 03:28:02;;;;;;;0.60;0.60;;;;;;;5.98;100.00;103634.84;6246100;23;20018;-82
2021/12/19 03:30:31;;;;;;;0.50;0.50;;;;;;;6.03;100.00;103635.84;6245475;23;20007;-82
2021/12/19 03:32:57;;;;;;;0.57;0.57;;;;;;;6.06;100.00;103625.34;6245510;23;20095;-82
2021/12/19 03:35:27;;;;;;;0.50;0.40;;;;;;;6.16;100.00;103625.56;6246114;23;19999;-82
2021/12/19 03:37:52;;;;;;;1.10;1.00;;;;;;;6.13;100.00;103620.22;6245682;23;20004;-82
2021/12/19 03:40:37;;;;;;;0.73;0.73;;;;;;;6.12;100.00;103618.44;6245978;23;20004;-81
2021/12/19 03:43:11;;;;;;;0.68;0.68;;;;;;;6.09;100.00;103613.13;6245573;23;20466;-81
2021/12/19 03:45:38;;;;;;;0.43;0.43;;;;;;;6.10;100.00;103608.72;6245841;23;20004;-82
2021/12/19 03:48:04;;;;;;;0.57;0.57;;;;;;;6.13;100.00;103614.94;6245458;23;20012;-81
2021/12/19 03:50:34;;;;;;;0.40;0.40;;;;;;;6.16;100.00;103608.84;6245552;23;20020;-82
2021/12/19 03:53:00;;;;;;;0.30;0.30;;;;;;;6.22;100.00;103611.59;6243396;23;20053;-82
2021/12/19 03:55:32;;;;;;;0.65;0.50;;;;;;;6.24;100.00;103618.69;6245758;23;20061;-82
2021/12/19 03:58:04;;;;;;;0.80;0.80;;;;;;;6.24;100.00;103618.69;6245939;23;20000;-81
2021/12/19 04:00:31;;;;;;;0.60;0.50;;;;;;;6.18;100.00;103609.75;6248271;23;20023;-81
2021/12/19 04:05:53;;;;;;;2.38;0.77;;;;;;;6.28;100.00;103611.72;6095538;23;20474;-82
2021/12/19 04:08:19;;;;;;;0.32;0.32;;;;;;;6.32;100.00;103610.03;6096388;23;20025;-81
2021/12/19 04:11:03;;;;;;;0.50;0.50;;;;;;;6.28;100.00;103600.25;6096438;23;20403;-81
2021/12/19 04:13:28;;;;;;;0.75;0.50;;;;;;;6.34;100.00;103587.16;6096883;23;20081;-81
2021/12/19 04:16:00;;;;;;;1.27;0.80;;;;;;;6.40;100.00;103589.94;6110373;23;20466;-81
2021/12/19 04:18:32;;;;;;;0.68;0.68;;;;;;;6.43;100.00;103587.38;6246440;23;20431;-82
2021/12/19 04:20:57;;;;;;;1.08;0.85;;;;;;;6.26;100.00;103580.91;6246352;23;20091;-81
2021/12/19 04:23:40;;;;;;;0.50;0.50;;;;;;;6.30;100.00;103578.34;6247055;23;20028;-81
2021/12/19 04:26:06;;;;;;;0.47;0.47;;;;;;;6.30;100.00;103580.06;6246377;23;20008;-81
2021/12/19 04:28:53;;;;;;;0.45;0.45;;;;;;;6.28;100.00;103577.41;6247662;23;20050;-81
2021/12/19 04:34:32;;;;;;;0.50;0.50;;;;;;;6.29;100.00;103570.38;6247938;23;20069;-81
2021/12/19 04:40:25;;;;;;;1.77;0.60;;;;;;;6.39;100.00;103567.94;6246818;23;20058;-81
2021/12/19 04:44:04;;;;;;;0.30;0.30;;;;;;;6.30;100.00;103573.06;6247693;23;20019;-81
2021/12/19 04:54:04;;;;;;;1.25;0.57;;;;;;;6.33;100.00;103554.63;6257261;23;20019;-81
2021/12/19 04:56:41;;;;;;;0.60;0.60;;;;;;;6.40;100.00;103550.34;6247239;23;20043;-81
2021/12/19 05:05:21;;;;;;;0.93;0.55;;;;;;;6.43;100.00;103548.63;6247254;23;20459;-81
2021/12/19 05:15:24;;;;;;;2.92;1.45;;;;;;;6.43;100.00;103553.91;6246439;23;20073;-80
2021/12/19 05:17:49;;;;;;;0.40;0.40;;;;;;;6.37;100.00;103564.38;6247190;23;20097;-80
2021/12/19 05:20:19;;;;;;;0.77;0.60;;;;;;;6.40;100.00;103563.56;6246740;23;20000;-81
2021/12/19 05:22:50;;;;;;;0.40;0.40;;;;;;;6.35;100.00;103559.94;6247001;23;20000;-81
2021/12/19 05:25:19;;;;;;;0.95;0.90;;;;;;;6.56;100.00;103558.53;6246746;23;20004;-81
2021/12/19 05:27:50;;;;;;;0.80;0.80;;;;;;;6.50;100.00;103558.44;6247388;23;20099;-80
2021/12/19 05:30:17;;;;;;;0.57;0.57;;;;;;;6.48;100.00;103556.63;6245718;23;20010;-81
2021/12/19 05:32:44;;;;;;;0.70;0.70;;;;;;;6.60;100.00;103556.84;6247802;23;20000;-81
2021/12/19 05:35:12;;;;;;;1.10;0.60;;;;;;;6.45;100.00;103551.28;6246455;23;20424;-80
2021/12/19 05:45:50;;;;;;;0.55;0.55;;;;;;;6.62;100.00;103558.63;6246847;23;20054;-80
2021/12/19 05:48:15;;;;;;;1.05;0.82;;;;;;;6.60;100.00;103554.22;6246076;23;20012;-80
2021/12/19 05:50:40;;;;;;;1.15;1.15;;;;;;;6.69;100.00;103557.00;6246120;23;20004;-81
2021/12/19 05:53:06;;;;;;;0.30;0.30;;;;;;;6.55;100.00;103558.53;6247865;23;19996;-80
2021/12/19 05:55:31;;;;;;;0.40;0.40;;;;;;;6.52;100.00;103554.09;6248934;23;20003;-81
2021/12/19 05:57:57;;;;;;;0.45;0.45;;;;;;;6.43;100.00;103548.63;6248532;23;20020;-79
2021/12/19 06:00:24;;;;;;;0.40;0.40;;;;;;;6.51;100.00;103543.50;6249033;23;20000;-81
2021/12/19 06:02:50;;;;;;;0.65;0.65;;;;;;;6.60;100.00;103541.91;6250097;23;20004;-81
2021/12/19 06:05:16;;;;;;;0.40;0.40;;;;;;;6.52;100.00;103535.59;6248000;23;20568;-81
2021/12/19 06:07:41;;;;;;;1.45;0.75;;;;;;;6.43;100.00;103529.28;6246968;23;20058;-81
2021/12/19 06:10:07;;;;;;;0.38;0.38;;;;;;;6.49;100.00;103526.75;6246268;23;20321;-81
2021/12/19 06:12:33;;;;;;;0.32;0.32;;;;;;;6.42;100.00;103528.38;6244184;23;20038;-81
2021/12/19 06:14:58;;;;;;;0.40;0.40;;;;;;;6.40;100.00;103521.31;6247050;23;20012;-81
2021/12/19 06:17:24;;;;;;;0.55;0.55;;;;;;;6.41;100.00;103528.38;6243270;23;20477;-80
2021/12/19 06:19:50;;;;;;;0.50;0.50;;;;;;;6.49;100.00;103524.09;6245787;23;20110;-81
2021/12/19 06:22:16;;;;;;;0.63;0.63;;;;;;;6.42;100.00;103531.03;6244525;23;20027;-80
2021/12/19 06:24:55;;;;;;;1.00;0.57;;;;;;;6.32;100.00;103520.28;6242989;23;20004;-82
2021/12/19 06:27:23;;;;;;;0.40;0.40;;;;;;;6.31;100.00;103516.75;6244928;23;20415;-82
2021/12/19 06:30:00;;;;;;;0.77;0.68;;;;;;;6.38;100.00;103518.66;6244606;23;20122;-81
2021/12/19 06:32:28;;;;;;;0.30;0.30;;;;;;;6.41;100.00;103515.16;6244596;23;20004;-81
2021/12/19 06:34:53;;;;;;;0.65;0.55;;;;;;;6.39;100.00;103516.88;6243272;23;20119;-82
2021/12/19 06:37:20;;;;;;;0.93;0.82;;;;;;;6.40;100.00;103513.41;6245559;23;20305;-82
2021/12/19 06:39:55;;;;;;;0.30;0.30;;;;;;;6.47;100.00;103513.53;6243394;23;20000;-82
2021/12/19 06:42:21;;;;;;;0.47;0.47;;;;;;;6.40;100.00;103513.41;6245989;23;20066;-82
2021/12/19 06:44:46;;;;;;;0.38;0.38;;;;;;;6.51;100.00;103511.81;6243261;23;20004;-83
2021/12/19 06:47:11;;;;;;;0.38;0.38;;;;;;;6.55;100.00;103503.06;6244284;23;20000;-82
2021/12/19 06:49:37;;;;;;;0.85;0.70;;;;;;;6.51;100.00;103498.63;6245447;23;20012;-82
2021/12/19 06:52:02;;;;;;;0.65;0.65;;;;;;;6.49;100.00;103500.34;6245705;23;20000;-82
2021/12/19 06:54:28;;;;;;;1.42;1.30;;;;;;;6.41;100.00;103496.69;6244592;23;20134;-81
2021/12/19 06:56:53;;;;;;;1.40;1.30;;;;;;;6.44;100.00;103495.00;6245755;23;20345;-83
2021/12/19 06:59:18;;;;;;;0.57;0.57;;;;;;;6.39;100.00;103501.03;6246226;23;20011;-82
2021/12/19 07:01:44;;;;;;;0.77;0.45;;;;;;;6.43;100.00;103497.59;6245033;23;20000;-83
2021/12/19 07:04:09;;;;;;;0.88;0.80;;;;;;;6.43;100.00;103503.75;6246029;23;20008;-81
2021/12/19 07:06:35;;;;;;;0.50;0.50;;;;;;;6.44;100.00;103504.66;6246241;23;20018;-81
2021/12/19 07:09:01;;;;;;;1.13;0.75;;;;;;;6.39;100.00;103495.75;6245411;23;20404;-84
2021/12/19 07:11:26;;;;;;;0.43;0.43;;;;;;;6.51;100.00;103493.34;6246580;23;20050;-83
2021/12/19 07:13:54;;;;;;;0.57;0.57;;;;;;;6.56;100.00;103494.28;6244196;23;20012;-84
2021/12/19 07:19:13;;;;;;;0.40;0.40;;;;;;;6.56;100.00;103491.63;6246823;22;20020;-82
2021/12/19 07:21:39;;;;;;;0.30;0.30;;;;;;;6.50;100.00;103496.81;6245313;23;20538;-82
2021/12/19 07:24:13;;;;;;;0.65;0.52;;;;;;;6.58;100.00;103503.13;6246136;22;20408;-84
2021/12/19 07:26:39;;;;;;;0.40;0.40;;;;;;;6.58;100.00;103498.75;6246014;22;20008;-82
2021/12/19 07:29:04;;;;;;;0.50;0.40;;;;;;;6.54;100.00;103496.91;6258819;22;20022;-83
2021/12/19 07:31:31;;;;;;;0.30;0.30;;;;;;;6.39;100.00;103491.38;6306784;22;20003;-84
2021/12/19 07:33:57;;;;;;;0.30;0.30;;;;;;;6.41;100.00;103494.94;6307670;22;20014;-84
2021/12/19 07:36:25;;;;;;;0.60;0.60;;;;;;;6.26;100.00;103483.25;6306527;22;20007;-84
2021/12/19 07:38:58;;;;;;;0.43;0.43;;;;;;;6.35;100.00;103488.66;6307114;22;19999;-84
2021/12/19 07:41:23;;;;;;;0.55;0.55;;;;;;;6.31;100.00;103481.53;6307391;22;20042;-83
2021/12/19 07:43:48;;;;;;;0.30;0.30;;;;;;;6.33;100.00;103486.00;6306224;22;20003;-83
2021/12/19 07:46:14;;;;;;;0.60;0.60;;;;;;;6.30;100.00;103482.41;6306538;22;20077;-83
2021/12/19 07:48:39;;;;;;;0.68;0.68;;;;;;;6.21;100.00;103485.78;6307833;22;20006;-83
2021/12/19 07:51:04;;;;;;;0.43;0.43;;;;;;;6.28;100.00;103485.03;6307697;22;20006;-83
2021/12/19 07:53:30;;;;;;;0.43;0.43;;;;;;;6.21;100.00;103481.41;6307495;22;20065;-83
2021/12/19 07:55:55;;;;;;;0.30;0.30;;;;;;;6.19;100.00;103482.25;6307356;22;20007;-83
2021/12/19 07:58:30;;;;;;;0.30;0.30;;;;;;;6.33;100.00;103477.19;6306707;22;20449;-82
2021/12/19 08:00:55;;;;;;;0.45;0.45;;;;;;;6.20;100.00;103477.00;6306996;22;20003;-82
2021/12/19 08:03:21;;;;;;;0.40;0.40;;;;;;;6.37;100.00;103473.75;6305693;22;20140;-83
2021/12/19 08:05:46;;;;;;;0.60;0.60;;;;;;;6.34;100.00;103479.84;6307608;22;20011;-83
2021/12/19 08:08:17;;;;;;;1.45;0.50;;;;;;;6.38;100.00;103472.88;6305730;22;20437;-85
2021/12/19 08:13:38;;;;;;;0.40;0.40;;;;;;;6.33;100.00;103472.81;6302729;22;20014;-84
2021/12/19 08:16:04;;;;;;;1.00;0.60;;;;;;;6.56;100.00;103465.25;6306926;22;20003;-83
2021/12/19 08:18:29;;;;;;;0.60;0.60;;;;;;;6.50;100.00;103467.78;6305761;22;20046;-84
2021/12/19 08:20:57;;;;;;;0.50;0.50;;;;;;;6.58;100.00;103468.78;6306192;22;20399;-88
2021/12/19 08:23:23;;;;;;;0.70;0.70;;;;;;;6.49;100.00;103463.38;6302341;22;20003;-81
2021/12/19 08:25:48;;;;;;;0.47;0.47;;;;;;;6.52;100.00;103460.78;6303056;22;20007;-80
2021/12/19 08:28:14;;;;;;;1.50;0.50;;;;;;;6.41;100.00;103467.66;6306351;22;20135;-81
2021/12/19 08:30:39;;;;;;;0.57;0.57;;;;;;;6.58;100.00;103452.97;6303908;22;20068;-82
2021/12/19 08:33:04;;;;;;;0.40;0.40;;;;;;;6.62;100.00;103458.31;6303618;22;20080;-80
2021/12/19 08:35:30;;;;;;;0.47;0.47;;;;;;;6.60;100.00;103456.50;6303734;22;20015;-81
2021/12/19 08:37:55;;;;;;;0.85;0.85;;;;;;;6.66;100.00;103460.13;6305272;22;20007;-81
2021/12/19 08:40:23;;;;;;;0.50;0.50;;;;;;;6.66;100.00;103456.59;6302433;22;20415;-80
2021/12/19 08:42:49;;;;;;;0.50;0.50;;;;;;;6.70;100.00;103458.41;6304929;22;20050;-81
2021/12/19 08:45:15;;;;;;;0.30;0.30;;;;;;;6.67;100.00;103463.66;6305168;22;20311;-80
2021/12/19 08:47:41;;;;;;;0.30;0.30;;;;;;;6.72;100.00;103465.50;6307182;22;20035;-81
2021/12/19 08:50:08;;;;;;;0.63;0.57;;;;;;;6.82;100.00;103459.50;6306782;22;20010;-81
2021/12/19 08:52:33;;;;;;;0.30;0.30;;;;;;;6.81;100.00;103451.53;6301353;22;20007;-86
2021/12/19 08:54:59;;;;;;;0.77;0.65;;;;;;;6.75;100.00;103449.69;6307804;22;20018;-84
2021/12/19 12:18:35;;;;;;;0.50;0.50;;;;;;;7.78;100.00;103240.25;6216053;23;20396;-88
2021/12/19 12:21:20;;;;;;;0.93;0.73;;;;;;;7.69;100.00;103234.88;6213510;23;20079;-80
2021/12/19 12:23:54;;;;;;;0.50;0.50;;;;;;;7.83;100.00;103228.81;6215721;23;20005;-80
2021/12/19 12:26:32;;;;;;;0.68;0.63;;;;;;;7.87;100.00;103231.47;6215340;23;20005;-80
2021/12/19 12:28:58;;;;;;;0.35;0.35;;;;;;;7.63;100.00;103227.78;6217577;23;20009;-80
2021/12/19 12:31:27;;;;;;;0.80;0.75;;;;;;;7.70;100.00;103228.72;6215736;23;20000;-80
2021/12/19 12:33:55;;;;;;;1.05;0.45;;;;;;;7.62;100.00;103233.06;6216515;23;20191;-80
2021/12/19 12:36:21;;;;;;;0.98;0.50;;;;;;;7.70;100.00;103226.97;6216044;23;20008;-80
2021/12/19 12:38:50;;;;;;;0.40;0.30;;;;;;;7.56;100.00;103227.75;6216236;23;20009;-80
2021/12/19 12:41:29;;;;;;;0.30;0.30;;;;;;;7.62;100.00;103222.50;6216080;23;20052;-81
2021/12/19 12:44:02;;;;;;;0.75;0.75;;;;;;;7.48;100.00;103225.03;6216859;23;20080;-82
2021/12/19 12:46:29;;;;;;;0.20;0.20;;;;;;;7.52;100.00;103226.81;6214621;23;20042;-82
2021/12/19 12:49:15;;;;;;;0.30;0.30;;;;;;;7.50;100.00;103227.69;6214182;23;20063;-82
2021/12/19 12:51:43;;;;;;;0.55;0.40;;;;;;;7.42;100.00;103222.31;6186518;23;20008;-82
2021/12/19 12:54:17;;;;;;;0.63;0.63;;;;;;;7.28;100.00;103223.09;6212676;23;20009;-82
2021/12/19 12:57:01;;;;;;;0.47;0.40;;;;;;;7.26;100.00;103219.56;6213771;23;20028;-81
2021/12/19 12:59:32;;;;;;;1.80;1.08;;;;;;;7.26;100.00;103222.19;6216074;23;20076;-82
2021/12/19 13:02:29;;;;;;;0.52;0.52;;;;;;;7.10;100.00;103215.00;6214201;23;20003;-81
2021/12/19 13:04:51;;;;;;;0.40;0.40;;;;;;;7.14;100.00;103212.41;6214425;23;20035;-83
2021/12/19 13:07:23;;;;;;;0.40;0.40;;;;;;;7.11;100.00;103211.47;6213901;23;20301;-82
2021/12/19 13:09:55;;;;;;;0.50;0.50;;;;;;;7.23;100.00;103217.75;6216374;23;20004;-84
2021/12/19 13:12:41;;;;;;;0.30;0.30;;;;;;;7.28;100.00;103213.41;6217280;23;20008;-84
2021/12/19 13:15:15;;;;;;;0.30;0.30;;;;;;;7.13;100.00;103204.47;6216405;23;20016;-85
2021/12/19 13:17:49;;;;;;;0.30;0.30;;;;;;;7.12;100.00;103202.69;6215026;23;20079;-84
2021/12/19 13:20:19;;;;;;;0.40;0.40;;;;;;;7.17;100.00;103195.69;6214772;23;20076;-82
2021/12/19 13:22:50;;;;;;;0.50;0.50;;;;;;;7.30;100.00;103189.63;6216422;23;20412;-84
2021/12/19 13:25:42;;;;;;;0.30;0.30;;;;;;;7.17;100.00;103182.50;6209267;23;20424;-84
2021/12/19 13:28:20;;;;;;;0.30;0.30;;;;;;;7.12;100.00;103186.84;6215125;23;20050;-84
2021/12/19 13:30:56;;;;;;;;;;;;;;;;;;;;;
2021/12/19 13:33:24;;;;;;;1.52;1.10;;;;;;;7.18;100.00;103181.59;6187341;23;20079;-84
2021/12/19 13:35:56;;;;;;;0.60;0.60;;;;;;;7.20;100.00;103179.88;6216420;23;20274;-84
2021/12/19 13:38:26;;;;;;;0.30;0.30;;;;;;;7.19;100.00;103189.53;6216428;23;20051;-84
2021/12/19 13:41:00;;;;;;;0.57;0.43;;;;;;;7.24;100.00;103184.28;6214944;23;20009;-83
2021/12/19 13:43:32;;;;;;;0.45;0.40;;;;;;;7.14;100.00;103191.25;6215772;23;19996;-84
2021/12/19 13:46:16;;;;;;;0.50;0.45;;;;;;;7.15;100.00;103181.59;6216431;23;20274;-84
2021/12/19 13:48:48;;;;;;;0.68;0.60;;;;;;;7.20;100.00;103182.50;6215722;23;20409;-86
2021/12/19 13:51:16;;;;;;;0.40;0.40;;;;;;;7.22;100.00;103179.00;6216302;23;20000;-83
2021/12/19 13:53:47;;;;;;;0.60;0.60;;;;;;;7.19;100.00;103172.78;6215886;23;20009;-84
2021/12/19 13:56:36;;;;;;;0.40;0.40;;;;;;;7.18;100.00;103171.03;6214775;23;20028;-88
2021/12/19 13:59:24;;;;;;;0.38;0.35;;;;;;;7.24;100.00;103174.63;6215601;23;20009;-93
2021/12/19 14:02:10;;;;;;;0.77;0.77;;;;;;;7.22;100.00;103180.75;6212356;23;20018;-84
2021/12/19 14:04:35;;;;;;;0.40;0.40;;;;;;;7.26;100.00;103178.16;6215040;23;20028;-83
2021/12/19 14:07:10;;;;;;;1.08;0.50;;;;;;;7.18;100.00;103177.22;6216393;23;20000;-83
2021/12/19 14:09:42;;;;;;;0.40;0.40;;;;;;;7.24;100.00;103179.00;6215460;23;20336;-85
2021/12/19 14:12:25;;;;;;;1.30;0.82;;;;;;;7.18;100.00;103174.56;6216190;23;20001;-83
2021/12/19 14:15:33;;;;;;;1.00;0.73;;;;;;;7.16;100.00;103168.38;6210701;23;20005;-83
2021/12/19 14:18:28;;;;;;;7.22;0.50;;;;;;;7.30;100.00;103166.72;6183890;23;20017;-83
2021/12/19 14:20:53;;;;;;;2.10;0.82;;;;;;;7.04;100.00;103165.66;6188930;23;20001;-83
2021/12/19 14:23:20;;;;;;;2.25;1.67;;;;;;;7.00;100.00;103165.56;6187815;23;20025;-83
2021/12/19 14:25:46;;;;;;;0.73;0.60;;;;;;;7.14;100.00;103158.66;6188386;23;20317;-89
2021/12/19 14:28:23;;;;;;;0.75;0.55;;;;;;;7.04;100.00;103152.44;6186353;23;20005;-84
2021/12/19 14:30:59;;;;;;;0.50;0.50;;;;;;;7.13;100.00;103151.59;6184630;23;20062;-84
2021/12/19 14:33:30;;;;;;;3.65;1.98;;;;;;;7.04;100.00;103155.06;6185159;23;20072;-84
2021/12/19 14:35:55;;;;;;;7.80;3.35;;;;;;;7.00;100.00;103152.38;6185851;23;20087;-84
2021/12/19 14:38:22;;;;;;;6.40;2.75;;;;;;;7.05;100.00;103143.63;6187570;23;20097;-87
2021/12/19 14:41:03;;;;;;;7.03;2.40;;;;;;;7.15;100.00;103144.59;6192379;23;20020;-86
2021/12/19 14:43:31;;;;;;;1.75;0.75;;;;;;;7.06;100.00;103141.88;6185708;23;20015;-84
2021/12/19 14:46:08;;;;;;;1.23;0.70;;;;;;;7.04;100.00;103141.88;6184655;23;20005;-84
2021/12/19 14:48:40;;;;;;;0.95;0.40;;;;;;;7.00;100.00;103136.50;6184860;23;20435;-89
2021/12/19 14:51:09;;;;;;;0.95;0.68;;;;;;;6.94;100.00;103139.09;6184281;23;20008;-85
2021/12/19 14:53:45;;;;;;;0.60;0.50;;;;;;;6.92;100.00;103146.13;6184920;23;20098;-85
2021/12/19 14:56:40;;;;;;;1.27;1.10;;;;;;;7.08;100.00;103142.75;6184655;23;20055;-84
2021/12/19 14:59:06;;;;;;;0.75;0.70;;;;;;;7.02;100.00;103148.00;6158026;23;20012;-85
2021/12/19 15:01:37;;;;;;;1.40;0.50;;;;;;;7.01;100.00;103141.81;6184030;23;20001;-85
2021/12/19 15:04:18;;;;;;;0.60;0.60;;;;;;;6.96;100.00;103137.38;6184547;23;20001;-85
2021/12/19 15:06:47;;;;;;;2.40;1.58;;;;;;;7.00;100.00;103144.44;6182661;23;20032;-84
2021/12/19 15:09:27;;;;;;;0.88;0.73;;;;;;;7.14;100.00;103146.34;6183588;23;20467;-86
2021/12/19 15:11:52;;;;;;;1.55;1.10;;;;;;;7.10;100.00;103143.66;6183011;23;20068;-84
2021/12/19 15:14:33;;;;;;;0.60;0.60;;;;;;;7.07;100.00;103138.34;6184067;23;20009;-84
2021/12/19 15:17:28;;;;;;;0.32;0.32;;;;;;;7.03;100.00;103140.06;6201156;23;20024;-84
2021/12/19 15:19:54;;;;;;;0.90;0.90;;;;;;;6.84;100.00;103127.56;6213598;23;20044;-84
2021/12/19 15:22:19;;;;;;;0.40;0.40;;;;;;;6.87;100.00;103127.59;6212393;23;20016;-86
2021/12/19 15:24:44;;;;;;;0.70;0.50;;;;;;;6.92;100.00;103125.00;6216071;23;20000;-92
2021/12/19 15:27:23;;;;;;;1.23;0.60;;;;;;;6.88;100.00;103115.28;6217137;23;20015;-93
2021/12/19 15:29:48;;;;;;;2.80;1.00;;;;;;;6.91;100.00;103113.56;6214175;23;20048;-84
2021/12/19 15:32:48;;;;;;;1.33;0.80;;;;;;;6.91;100.00;103120.59;6213888;23;20009;-83
2021/12/19 15:35:14;;;;;;;1.77;0.93;;;;;;;6.90;100.00;103116.19;6210363;23;20012;-83
2021/12/19 15:37:54;;;;;;;0.47;0.47;;;;;;;6.82;100.00;103113.50;6213910;23;20056;-83
2021/12/19 15:40:29;;;;;;;0.90;0.60;;;;;;;6.84;100.00;103111.72;6212845;23;20005;-91
2021/12/19 15:43:02;;;;;;;0.70;0.60;;;;;;;6.90;100.00;103106.50;6213620;23;20011;-83
2021/12/19 15:45:28;;;;;;;4.57;0.98;;;;;;;6.84;100.00;103110.88;6213026;23;20084;-83
2021/12/19 15:48:28;;;;;;;2.65;0.75;;;;;;;6.81;100.00;103106.44;6213005;23;20047;-89
2021/12/19 15:51:06;;;;;;;0.60;0.57;;;;;;;6.88;100.00;103097.69;6213293;23;20425;-83
2021/12/19 15:53:31;;;;;;;0.55;0.55;;;;;;;6.95;100.00;103098.63;6213954;23;20296;-83
2021/12/19 15:56:04;;;;;;;1.25;1.15;;;;;;;6.85;100.00;103091.50;6213021;23;20084;-83
2021/12/19 15:58:42;;;;;;;1.88;0.98;;;;;;;6.85;100.00;103091.50;6214667;23;20031;-83
2021/12/19 16:01:07;;;;;;;0.30;0.30;;;;;;;6.88;100.00;103087.13;6215199;23;20004;-83
2021/12/19 16:03:33;;;;;;;1.88;0.95;;;;;;;6.81;100.00;103089.69;6215100;23;20051;-83
2021/12/19 16:05:58;;;;;;;1.45;0.88;;;;;;;6.84;100.00;103087.09;6216356;23;20089;-82
2021/12/19 16:08:23;;;;;;;0.77;0.77;;;;;;;6.87;100.00;103079.19;6214346;23;20009;-83
2021/12/19 16:11:01;;;;;;;0.52;0.52;;;;;;;6.82;100.00;103079.16;6215526;23;20503;-83
2021/12/19 16:13:38;;;;;;;1.17;1.13;;;;;;;6.89;100.00;103078.31;6216057;23;20504;-82
2021/12/19 16:16:16;;;;;;;0.60;0.43;;;;;;;6.93;100.00;103076.59;6216586;23;20001;-82
2021/12/19 16:18:50;;;;;;;2.95;1.00;;;;;;;6.87;100.00;103074.78;6215927;23;20008;-82
2021/12/19 16:21:16;;;;;;;2.05;0.63;;;;;;;6.89;100.00;103083.59;6216774;23;20016;-82
2021/12/19 16:23:50;;;;;;;2.40;0.73;;;;;;;6.92;100.00;103074.81;6215655;23;20004;-83
2021/12/19 16:26:16;;;;;;;1.00;0.75;;;;;;;6.91;100.00;103073.06;6215099;23;20005;-83
2021/12/19 16:28:48;;;;;;;1.25;1.17;;;;;;;6.90;100.00;103073.94;6214869;23;20047;-83
2021/12/19 16:31:31;;;;;;;1.50;0.57;;;;;;;6.84;100.00;103068.59;6213386;23;20024;-84
2021/12/19 16:34:03;;;;;;;2.47;1.70;;;;;;;6.91;100.00;103075.69;6215911;23;20009;-84
2021/12/19 16:36:37;;;;;;;1.95;0.70;;;;;;;6.84;100.00;103068.59;6214388;23;20011;-83
2021/12/19 16:39:20;;;;;;;13.57;7.78;;;;;;;6.84;100.00;103074.75;6215262;23;20051;-83
2021/12/19 16:41:49;;;;;;;13.05;5.55;;;;;;;6.90;100.00;103068.66;6215361;23;20043;-83
2021/12/19 16:44:32;;;;;;;2.93;1.80;;;;;;;6.86;100.00;103059.81;6214297;23;20028;-83
2021/12/19 16:47:09;;;;;;;0.75;0.60;;;;;;;6.79;100.00;103062.41;6215364;23;20004;-83
2021/12/19 16:49:37;;;;;;;0.70;0.70;;;;;;;6.71;100.00;103067.63;6215179;23;20377;-83
2021/12/19 21:33:33;;;;;;;1.88;1.73;;;;;;;6.43;100.00;103004.00;6229173;22;20008;-85
2021/12/19 21:39:13;;;;;;;0.77;0.70;;;;;;;6.49;100.00;103014.63;6307481;22;20205;-87
2021/12/19 21:41:39;;;;;;;0.73;0.50;;;;;;;6.57;100.00;103013.78;6307001;22;20007;-86
2021/12/19 21:44:05;;;;;;;0.73;0.60;;;;;;;6.53;100.00;103019.94;6306924;22;20419;-85